Time;durP1;ratioP1;P1;durP2;ratioP2;P2;SDS_P1;SDS_P2;PMS_P1;PMS_P2;Temp;Humidity;BMP_temperature;BMP_pressure;BME280_temperature;BME280_humidity;BME280_pressure;Samples;Min_cycle;Max_cycle;Signal;HPM_P1;HPM_P2
2022/03/26 00:00:16;;;;;;;53.03;32.20;;;7.50;59.80;;;6.42;51.68;98341.13;5009746;28;20397;-73
2022/03/26 00:02:42;;;;;;;54.05;32.80;;;7.50;60.40;;;6.41;51.35;98342.94;5010302;28;21015;-73
2022/03/26 00:05:09;;;;;;;54.80;34.80;;;7.50;60.20;;;6.42;51.46;98341.13;5010245;28;20400;-73
2022/03/26 00:07:35;;;;;;;60.50;35.00;;;7.50;60.10;;;6.40;51.37;98341.31;5010349;28;20412;-73
2022/03/26 00:10:01;;;;;;;54.23;34.50;;;7.40;60.50;;;6.32;51.35;98346.78;5010180;28;21048;-73
2022/03/26 00:12:28;;;;;;;50.70;33.40;;;7.40;60.20;;;6.27;51.66;98345.75;5009938;28;20412;-73
2022/03/26 00:14:54;;;;;;;44.42;29.45;;;7.40;60.50;;;6.16;51.62;98355.84;5010109;28;20444;-73
2022/03/26 00:17:20;;;;;;;50.23;31.50;;;7.30;60.30;;;6.13;51.90;98348.38;5010289;28;20516;-73
2022/03/26 00:19:46;;;;;;;55.70;34.92;;;7.30;60.70;;;6.24;52.22;98349.59;5010192;28;20411;-74
2022/03/26 00:22:12;;;;;;;57.10;35.00;;;7.30;61.10;;;6.26;51.40;98342.31;5009831;28;20474;-72
2022/03/26 00:24:38;;;;;;;58.05;35.00;;;7.30;60.60;;;6.16;51.58;98345.34;5010169;28;20471;-73
2022/03/26 00:27:04;;;;;;;55.22;34.95;;;7.30;60.60;;;6.17;51.19;98354.84;5010140;28;20405;-72
2022/03/26 00:29:32;;;;;;;49.00;31.48;;;7.30;60.30;;;6.08;51.65;98348.16;5009857;28;20420;-73
2022/03/26 00:31:58;;;;;;;53.95;33.22;;;7.20;60.40;;;6.06;51.56;98346.75;5009736;28;20415;-73
2022/03/26 00:34:23;;;;;;;56.35;36.28;;;7.20;60.70;;;6.09;52.14;98336.63;5009846;28;20417;-73
2022/03/26 00:36:49;;;;;;;46.38;30.75;;;7.20;61.20;;;5.94;52.05;98346.50;5010021;28;20405;-73
2022/03/26 00:39:15;;;;;;;53.93;32.07;;;7.10;61.00;;;5.95;52.10;98342.84;5009950;28;20416;-73
2022/03/26 00:41:41;;;;;;;57.45;35.42;;;7.10;61.00;;;6.02;52.18;98335.81;5009686;28;20499;-73
2022/03/26 00:44:07;;;;;;;60.97;36.13;;;7.10;61.40;;;6.02;52.27;98343.69;5009909;28;20414;-73
2022/03/26 00:46:34;;;;;;;46.58;30.15;;;7.10;61.50;;;5.89;52.20;98343.66;5011877;28;20437;-74
2022/03/26 00:49:00;;;;;;;41.85;28.05;;;7.10;61.10;;;5.80;52.25;98350.88;5013412;28;20459;-74
2022/03/26 00:51:26;;;;;;;53.47;34.72;;;7.00;61.10;;;5.90;52.78;98347.91;5013170;28;20451;-73
2022/03/26 00:53:52;;;;;;;60.88;35.97;;;7.00;61.90;;;5.93;52.53;98346.72;5013310;28;20794;-74
2022/03/26 00:56:18;;;;;;;53.47;34.17;;;7.00;61.90;;;5.92;52.53;98351.16;5012186;28;20416;-73
2022/03/26 00:58:44;;;;;;;51.97;33.38;;;7.00;62.10;;;5.79;52.80;98349.25;5013480;28;20436;-74
2022/03/26 01:01:11;;;;;;;52.95;33.03;;;6.90;62.10;;;5.69;52.79;98351.44;5012994;28;20492;-73
2022/03/26 01:03:38;;;;;;;57.33;35.40;;;6.90;63.00;;;5.76;53.37;98344.41;5013445;28;20435;-73
2022/03/26 01:06:05;;;;;;;56.65;34.78;;;6.80;63.00;;;5.75;53.41;98342.78;5013205;28;20409;-73
2022/03/26 01:08:31;;;;;;;60.05;36.10;;;6.80;63.10;;;5.67;53.74;98348.19;5013109;28;20428;-73
2022/03/26 01:10:58;;;;;;;54.00;33.60;;;6.80;63.60;;;5.53;53.69;98343.09;5012773;28;20921;-73
2022/03/26 01:13:25;;;;;;;49.77;30.93;;;6.70;63.40;;;5.46;53.56;98343.06;5013007;28;20492;-73
2022/03/26 01:15:51;;;;;;;58.40;34.17;;;6.60;63.20;;;5.54;53.41;98349.97;5013100;28;20515;-73
2022/03/26 01:18:17;;;;;;;52.93;34.03;;;6.60;63.40;;;5.55;53.85;98346.34;5013051;28;20937;-73
2022/03/26 01:20:44;;;;;;;54.78;35.90;;;6.70;63.80;;;5.54;54.08;98342.88;5012610;28;20409;-73
2022/03/26 01:23:10;;;;;;;56.42;35.58;;;6.60;64.20;;;5.49;53.88;98340.03;5012821;28;20408;-73
2022/03/26 01:25:36;;;;;;;45.20;30.70;;;6.60;64.20;;;5.39;54.07;98344.84;5012863;28;20488;-73
2022/03/26 01:28:02;;;;;;;49.78;33.95;;;6.60;64.00;;;5.40;54.29;98343.84;5012815;28;20482;-73
2022/03/26 01:30:28;;;;;;;52.90;34.40;;;6.50;64.50;;;5.37;54.79;98345.03;5012175;28;20435;-73
2022/03/26 01:32:55;;;;;;;54.43;35.13;;;6.50;64.60;;;5.40;54.39;98349.91;5012519;28;20882;-73
2022/03/26 01:35:21;;;;;;;52.03;34.40;;;6.50;64.80;;;5.34;54.56;98344.59;5012695;28;20506;-73
2022/03/26 01:37:48;;;;;;;54.22;34.25;;;6.40;64.80;;;5.28;54.40;98351.44;5012676;28;20890;-73
2022/03/26 01:40:16;;;;;;;54.03;33.42;;;6.40;64.70;;;5.28;54.74;98351.44;5012276;28;20401;-73
2022/03/26 01:42:42;;;;;;;57.13;34.67;;;6.40;65.00;;;5.30;54.66;98343.38;5012534;28;20447;-73
2022/03/26 01:45:11;;;;;;;60.25;36.20;;;6.40;65.30;;;5.23;55.20;98335.47;5012373;28;20401;-73
2022/03/26 01:47:37;;;;;;;54.72;33.20;;;6.30;65.80;;;5.15;55.31;98342.69;5012548;28;20416;-74
2022/03/26 01:50:04;;;;;;;55.15;33.80;;;6.30;65.70;;;5.20;54.94;98337.66;5012170;28;20420;-74
2022/03/26 01:52:30;;;;;;;59.80;35.60;;;6.30;65.90;;;5.23;54.74;98338.09;5012006;28;20949;-74
2022/03/26 01:54:58;;;;;;;60.85;34.13;;;6.30;65.50;;;5.21;54.66;98332.22;5012174;28;20404;-74
2022/03/26 01:57:24;;;;;;;58.15;35.30;;;6.30;65.40;;;5.24;54.76;98337.09;5011356;28;20403;-74
2022/03/26 01:59:50;;;;;;;58.13;35.35;;;6.30;65.30;;;5.18;54.55;98332.63;5012046;28;20405;-73
2022/03/26 02:02:16;;;;;;;58.28;34.33;;;6.30;65.20;;;5.16;54.82;98334.63;5011817;28;20895;-74
2022/03/26 02:04:42;;;;;;;56.35;34.25;;;6.30;65.30;;;5.20;54.70;98332.41;5012045;28;20424;-74
2022/03/26 02:07:08;;;;;;;54.35;32.80;;;6.30;65.30;;;5.02;54.96;98335.53;5012107;28;20416;-74
2022/03/26 02:09:36;;;;;;;49.72;32.45;;;6.20;65.40;;;5.00;55.17;98340.16;5011895;28;20514;-73
2022/03/26 02:12:22;;;;;;;57.87;34.57;;;6.20;65.70;;;5.07;55.11;98339.19;5011565;28;20424;-74
2022/03/26 02:14:49;;;;;;;58.70;34.60;;;6.10;66.10;;;5.00;55.20;98335.72;5011843;28;20874;-73
2022/03/26 02:17:17;;;;;;;51.17;33.30;;;6.10;66.00;;;4.98;55.86;98340.34;5011224;28;21274;-73
2022/03/26 02:19:48;;;;;;;58.15;36.35;;;6.10;66.40;;;4.98;55.67;98329.84;5011706;28;20431;-73
2022/03/26 02:22:15;;;;;;;56.88;35.08;;;6.00;66.60;;;4.94;55.71;98331.25;5011471;28;20888;-73
2022/03/26 02:24:41;;;;;;;56.90;34.78;;;6.10;66.70;;;4.95;55.65;98335.50;5011783;28;20840;-74
2022/03/26 02:27:07;;;;;;;59.45;36.50;;;6.00;66.50;;;4.91;55.49;98331.63;5011634;28;20405;-73
2022/03/26 02:29:33;;;;;;;53.13;33.00;;;6.00;66.70;;;4.84;55.82;98333.41;5010178;28;20490;-73
2022/03/26 02:31:59;;;;;;;56.60;34.00;;;6.00;66.80;;;4.88;55.91;98333.84;5011249;28;20409;-73
2022/03/26 02:34:26;;;;;;;52.92;33.10;;;6.00;67.00;;;4.80;55.80;98326.09;5011383;28;20825;-73
2022/03/26 02:36:55;;;;;;;58.53;34.87;;;5.90;66.70;;;4.82;55.71;98326.69;5011544;28;20454;-72
2022/03/26 02:39:21;;;;;;;55.40;32.95;;;5.90;66.70;;;4.69;56.02;98327.44;5011416;28;20960;-73
2022/03/26 02:41:47;;;;;;;58.83;34.20;;;5.90;67.10;;;4.75;56.24;98328.47;5010956;28;20469;-74
2022/03/26 02:44:13;;;;;;;55.17;33.50;;;5.80;67.20;;;4.68;56.24;98324.00;5011401;28;20908;-74
2022/03/26 02:46:39;;;;;;;52.15;32.45;;;5.80;67.60;;;4.61;56.51;98330.19;5011553;28;20413;-74
2022/03/26 02:49:05;;;;;;;52.45;31.45;;;5.80;67.50;;;4.59;56.59;98322.50;5011171;28;20468;-72
2022/03/26 02:51:31;;;;;;;43.65;27.83;;;5.80;67.60;;;4.43;56.76;98328.03;5009622;28;20432;-73
2022/03/26 02:53:59;;;;;;;39.63;25.80;;;5.70;67.50;;;4.33;56.83;98327.53;5011255;28;20401;-73
2022/03/26 02:56:24;;;;;;;45.05;29.42;;;5.60;67.80;;;4.38;57.34;98333.03;5011200;28;20941;-73
2022/03/26 02:58:50;;;;;;;52.10;32.72;;;5.50;68.10;;;4.36;57.17;98336.84;5011072;28;20409;-73
2022/03/26 03:01:16;;;;;;;55.22;34.15;;;5.50;68.60;;;4.39;57.64;98333.84;5025895;28;20463;-73
2022/03/26 03:03:42;;;;;;;51.55;31.98;;;5.50;69.00;;;4.36;57.60;98324.53;5011021;28;20755;-73
2022/03/26 03:06:08;;;;;;;53.92;32.75;;;5.50;69.00;;;4.27;57.71;98334.34;5011207;28;20405;-73
2022/03/26 03:08:34;;;;;;;52.60;32.13;;;5.50;69.10;;;4.31;57.52;98340.00;5010014;28;20408;-74
2022/03/26 03:11:01;;;;;;;54.75;32.28;;;5.50;69.20;;;4.28;57.54;98328.09;5010306;28;20440;-73
2022/03/26 03:13:27;;;;;;;52.88;33.03;;;5.50;69.30;;;4.30;57.85;98327.91;5010731;28;20408;-73
2022/03/26 03:15:53;;;;;;;52.00;33.30;;;5.40;69.40;;;4.27;57.81;98325.69;5010788;28;20412;-73
2022/03/26 03:18:19;;;;;;;55.38;33.72;;;5.40;69.70;;;4.22;57.83;98328.84;5010845;28;20407;-73
2022/03/26 03:20:45;;;;;;;50.80;31.90;;;5.40;69.90;;;4.20;58.27;98319.56;5010393;28;20397;-73
2022/03/26 03:23:13;;;;;;;54.53;32.65;;;5.30;70.00;;;4.20;58.06;98317.75;5010709;28;20397;-73
2022/03/26 03:25:39;;;;;;;47.20;30.85;;;5.30;70.10;;;4.03;58.10;98321.63;5010705;28;20902;-73
2022/03/26 03:28:07;;;;;;;46.13;29.88;;;5.20;69.90;;;3.95;58.30;98321.72;5009980;28;20415;-73
2022/03/26 03:30:33;;;;;;;45.17;29.48;;;5.20;70.00;;;3.89;58.46;98312.81;5008097;28;20416;-73
2022/03/26 03:32:59;;;;;;;49.13;31.30;;;5.20;70.20;;;3.97;59.09;98314.50;5010234;28;20409;-72
2022/03/26 03:35:25;;;;;;;52.20;33.65;;;5.10;70.60;;;3.96;58.98;98317.31;5011116;22;20479;-71
2022/03/26 03:37:51;;;;;;;51.30;33.28;;;5.10;71.10;;;3.94;58.89;98311.44;4990847;28;20409;-71
2022/03/26 03:40:18;;;;;;;53.50;33.45;;;5.10;71.10;;;3.94;59.31;98314.06;4990542;28;20403;-71
2022/03/26 03:42:45;;;;;;;45.70;29.95;;;5.10;71.20;;;3.80;58.92;98313.09;4990553;28;20419;-71
2022/03/26 03:45:12;;;;;;;43.13;28.67;;;5.10;71.10;;;3.72;59.00;98311.41;4990553;28;20769;-71
2022/03/26 03:47:41;;;;;;;49.37;31.17;;;5.00;71.20;;;3.76;59.43;98312.66;4990752;28;20402;-71
2022/03/26 03:50:08;;;;;;;48.22;31.55;;;5.00;71.70;;;3.72;59.54;98310.59;4990293;28;20875;-71
2022/03/26 03:52:37;;;;;;;52.17;33.08;;;4.90;71.80;;;3.72;59.05;98302.75;4990775;28;20461;-72
2022/03/26 03:55:05;;;;;;;41.60;29.55;;;4.90;71.60;;;3.66;59.50;98306.91;4990709;28;20403;-71
2022/03/26 03:57:31;;;;;;;40.42;27.00;;;4.90;71.60;;;3.58;59.60;98306.22;4990686;28;20430;-71
2022/03/26 03:59:57;;;;;;;43.90;28.50;;;4.80;71.60;;;3.57;59.77;98310.63;4990516;28;20410;-71
2022/03/26 04:02:24;;;;;;;49.05;33.53;;;4.80;71.70;;;3.66;59.87;98311.34;4990504;28;20413;-71
2022/03/26 04:04:50;;;;;;;46.03;30.70;;;4.80;72.30;;;3.50;59.93;98305.31;5005702;28;20923;-72
2022/03/26 04:07:16;;;;;;;45.25;31.00;;;4.80;72.30;;;3.48;59.86;98307.31;4990800;28;20414;-71
2022/03/26 04:09:42;;;;;;;52.10;32.42;;;4.70;72.30;;;3.59;60.06;98316.50;4990521;28;20425;-71
2022/03/26 04:12:10;;;;;;;45.55;30.75;;;4.70;72.60;;;3.45;60.00;98305.06;4990111;28;20410;-71
2022/03/26 04:14:38;;;;;;;43.90;29.55;;;4.70;72.50;;;3.40;60.14;98306.59;4990466;28;20415;-71
2022/03/26 04:17:05;;;;;;;55.77;32.97;;;4.70;72.60;;;3.46;60.28;98306.66;4990817;28;20456;-71
2022/03/26 04:19:32;;;;;;;55.15;34.30;;;4.70;72.80;;;3.50;60.36;98304.50;4990512;28;20410;-71
2022/03/26 04:21:58;;;;;;;42.60;29.55;;;4.70;73.00;;;3.31;60.34;98305.88;4984873;28;20832;-72
2022/03/26 04:24:25;;;;;;;48.70;32.13;;;4.60;72.70;;;3.33;60.61;98310.94;4994286;28;20420;-71
2022/03/26 04:26:51;;;;;;;49.67;32.15;;;4.60;73.30;;;3.34;60.91;98310.75;4994037;28;20407;-72
2022/03/26 04:29:17;;;;;;;45.38;27.83;;;4.60;73.30;;;3.24;60.64;98310.22;4994151;28;20997;-71
2022/03/26 04:31:43;;;;;;;52.15;32.90;;;4.50;73.10;;;3.29;60.82;98318.34;4994135;28;20417;-71
2022/03/26 04:34:08;;;;;;;44.90;29.95;;;4.50;73.60;;;3.20;60.73;98318.63;4994046;28;20783;-71
2022/03/26 04:36:36;;;;;;;53.35;33.15;;;4.40;73.70;;;3.30;60.99;98314.75;4994527;28;20492;-71
2022/03/26 04:39:02;;;;;;;54.73;33.73;;;4.40;74.00;;;3.26;61.30;98310.84;4994062;28;20460;-71
2022/03/26 04:41:28;;;;;;;54.58;31.77;;;4.40;74.10;;;3.20;61.24;98308.16;4993825;28;20418;-71
2022/03/26 04:43:54;;;;;;;45.42;29.85;;;4.40;74.30;;;3.06;61.27;98318.44;4993899;28;20422;-71
2022/03/26 04:46:20;;;;;;;50.27;31.93;;;4.40;74.20;;;3.10;61.35;98316.25;4994016;28;20410;-71
2022/03/26 04:48:46;;;;;;;52.35;32.38;;;4.30;74.30;;;3.14;61.42;98317.53;4994006;28;20833;-71
2022/03/26 04:51:12;;;;;;;51.67;32.80;;;4.40;74.60;;;3.09;61.74;98317.25;4993292;28;20425;-71
2022/03/26 04:53:39;;;;;;;55.47;32.67;;;4.30;74.60;;;3.18;61.56;98307.50;4993872;28;20820;-71
2022/03/26 04:56:05;;;;;;;49.85;31.55;;;4.30;74.90;;;3.10;61.52;98308.41;4993843;28;20975;-71
2022/03/26 04:58:32;;;;;;;58.25;34.30;;;4.30;75.00;;;3.07;61.75;98314.03;4993768;28;20810;-71
2022/03/26 05:00:59;;;;;;;47.90;30.13;;;4.20;75.20;;;2.92;61.79;98323.66;4993125;28;20919;-71
2022/03/26 05:03:24;;;;;;;38.63;25.83;;;4.20;75.00;;;2.86;62.00;98326.97;4993766;28;20441;-71
2022/03/26 05:05:50;;;;;;;44.08;29.95;;;4.10;75.10;;;2.90;62.27;98328.25;4993636;28;20446;-71
2022/03/26 05:08:16;;;;;;;52.23;34.70;;;4.20;75.60;;;2.91;61.98;98327.28;4993758;28;20413;-71
2022/03/26 05:10:44;;;;;;;56.17;35.92;;;4.20;75.70;;;2.97;62.33;98329.16;4992900;28;20784;-72
2022/03/26 05:13:10;;;;;;;56.15;35.60;;;4.10;75.80;;;2.89;62.01;98330.06;5008502;28;20903;-71
2022/03/26 05:15:36;;;;;;;48.03;31.20;;;4.20;75.80;;;2.81;62.22;98334.56;4993638;28;20501;-71
2022/03/26 05:18:03;;;;;;;56.40;33.90;;;4.10;75.70;;;2.81;62.31;98343.22;4993452;28;20445;-72
2022/03/26 05:20:29;;;;;;;53.35;34.58;;;4.10;75.90;;;2.91;62.39;98341.16;4992860;28;20426;-71
2022/03/26 05:22:55;;;;;;;53.65;34.63;;;4.10;76.00;;;2.90;62.64;98336.91;4993380;28;20410;-71
2022/03/26 05:25:21;;;;;;;54.13;34.60;;;4.10;76.20;;;2.87;62.99;98329.41;4993267;28;20407;-71
2022/03/26 05:27:51;;;;;;;52.92;34.17;;;4.10;76.30;;;2.88;62.75;98336.28;4993280;28;20498;-71
2022/03/26 05:30:19;;;;;;;51.13;31.83;;;4.10;76.60;;;2.82;62.48;98338.78;4992784;28;20779;-71
2022/03/26 05:32:45;;;;;;;47.75;31.42;;;4.00;76.50;;;2.77;62.85;98343.75;4992002;28;20402;-72
2022/03/26 05:35:13;;;;;;;44.13;29.63;;;4.00;76.50;;;2.74;62.67;98344.91;4992987;28;20437;-72
2022/03/26 05:37:40;;;;;;;49.15;32.58;;;4.00;76.30;;;2.82;62.69;98344.03;4993004;28;20434;-71
2022/03/26 05:40:07;;;;;;;44.13;30.38;;;4.10;76.50;;;2.80;62.63;98346.81;4992888;28;20407;-71
2022/03/26 05:42:33;;;;;;;53.25;33.45;;;4.10;76.50;;;2.89;62.70;98342.31;4992773;28;20908;-71
2022/03/26 05:45:01;;;;;;;47.85;31.17;;;4.10;76.80;;;2.90;62.98;98352.59;5007770;28;20476;-71
2022/03/26 05:47:28;;;;;;;41.37;27.90;;;4.10;76.70;;;2.85;62.89;98354.13;4992950;28;20400;-71
2022/03/26 05:49:55;;;;;;;37.45;26.50;;;4.10;76.60;;;2.87;62.88;98357.38;4992467;28;20422;-71
2022/03/26 05:52:21;;;;;;;48.85;31.13;;;4.10;76.60;;;2.91;62.96;98361.25;4992378;28;20900;-71
2022/03/26 05:54:47;;;;;;;51.60;33.80;;;4.20;76.80;;;3.04;62.97;98361.44;4992838;28;20413;-71
2022/03/26 05:57:13;;;;;;;41.88;28.58;;;4.20;77.10;;;2.96;62.46;98367.56;4992646;28;20509;-71
2022/03/26 05:59:39;;;;;;;51.97;32.53;;;4.20;76.80;;;3.10;63.18;98376.44;4992605;28;20403;-71
2022/03/26 06:02:06;;;;;;;50.78;32.63;;;4.20;77.20;;;3.15;63.41;98371.50;4992235;28;20441;-71
2022/03/26 06:04:33;;;;;;;49.17;32.20;;;4.30;77.50;;;3.15;63.13;98368.88;4992471;28;20896;-71
2022/03/26 06:06:59;;;;;;;45.63;31.20;;;4.30;77.40;;;3.19;63.49;98374.53;4992435;28;20884;-71
2022/03/26 06:09:25;;;;;;;37.17;25.95;;;4.40;77.60;;;3.21;63.33;98369.94;4992391;28;20477;-71
2022/03/26 06:11:51;;;;;;;39.58;26.90;;;4.40;77.40;;;3.28;63.04;98381.31;4991995;28;20409;-71
2022/03/26 06:14:18;;;;;;;49.80;32.83;;;4.50;77.40;;;3.34;63.17;98378.78;4992319;28;20403;-72
2022/03/26 06:16:44;;;;;;;53.42;34.10;;;4.50;77.30;;;3.46;62.78;98382.56;4992407;28;20406;-72
2022/03/26 06:19:11;;;;;;;43.50;29.58;;;4.60;77.20;;;3.48;62.67;98383.22;4992218;28;20462;-71
2022/03/26 06:21:37;;;;;;;41.83;28.70;;;4.70;77.00;;;3.56;62.40;98384.91;4991836;28;20528;-71
2022/03/26 06:24:04;;;;;;;39.55;26.92;;;4.70;76.50;;;3.64;61.94;98400.53;4992208;28;20531;-71
2022/03/26 06:26:31;;;;;;;39.60;26.30;;;4.80;76.30;;;3.71;61.77;98409.28;4992238;28;20465;-71
2022/03/26 06:28:57;;;;;;;36.75;25.15;;;4.90;76.10;;;3.79;61.99;98409.19;4992105;28;20409;-70
2022/03/26 06:31:24;;;;;;;41.50;27.73;;;4.90;76.00;;;3.86;61.83;98415.31;4991715;28;20426;-71
2022/03/26 06:33:50;;;;;;;45.67;30.88;;;5.00;75.80;;;3.96;61.58;98416.84;4991872;28;20499;-71
2022/03/26 06:36:18;;;;;;;60.90;35.55;;;5.10;75.70;;;4.10;61.42;98413.38;4992001;28;20485;-71
2022/03/26 06:38:44;;;;;;;45.08;29.75;;;5.20;75.60;;;4.18;61.00;98413.25;4991968;28;20403;-71
2022/03/26 06:41:11;;;;;;;51.22;31.38;;;5.30;75.30;;;4.28;61.03;98405.94;4991287;28;20406;-71
2022/03/26 06:43:37;;;;;;;44.90;29.63;;;5.40;75.00;;;4.39;60.64;98412.47;4991429;28;20407;-71
2022/03/26 06:46:04;;;;;;;41.00;27.25;;;5.50;74.50;;;4.47;60.19;98414.97;4991802;28;20465;-71
2022/03/26 06:48:30;;;;;;;42.75;27.92;;;5.60;74.10;;;4.56;60.09;98424.34;4991724;28;20469;-71
2022/03/26 06:50:57;;;;;;;42.72;28.05;;;5.70;74.00;;;4.62;60.26;98420.97;4991067;28;20433;-71
2022/03/26 06:53:24;;;;;;;39.42;25.60;;;5.70;73.90;;;4.70;59.84;98431.34;4991654;28;20406;-70
2022/03/26 06:55:50;;;;;;;40.90;27.85;;;5.80;73.80;;;4.80;59.95;98433.66;4991721;28;20497;-73
2022/03/26 06:58:16;;;;;;;38.22;26.35;;;5.80;73.80;;;4.90;59.94;98434.13;4991613;28;20813;-72
2022/03/26 07:00:41;;;;;;;42.80;27.25;;;5.90;73.80;;;5.00;59.61;98429.38;4991119;28;20430;-72
2022/03/26 07:03:10;;;;;;;43.20;27.83;;;6.00;73.40;;;5.10;59.24;98426.44;4991523;28;20442;-72
2022/03/26 07:05:36;;;;;;;40.50;26.25;;;6.10;72.90;;;5.20;58.85;98432.13;4992215;28;20423;-74
2022/03/26 07:08:03;;;;;;;40.53;26.60;;;6.20;72.60;;;5.29;58.93;98425.75;4991179;28;20410;-73
2022/03/26 07:10:30;;;;;;;41.80;27.52;;;6.30;72.40;;;5.37;58.68;98436.91;4991043;28;20416;-72
2022/03/26 07:12:56;;;;;;;44.30;27.37;;;6.40;72.30;;;5.47;58.63;98433.16;4989707;28;20749;-72
2022/03/26 07:15:22;;;;;;;40.78;26.73;;;6.50;72.20;;;5.55;58.31;98438.25;4991044;28;20421;-71
2022/03/26 07:17:48;;;;;;;40.53;26.50;;;6.60;71.90;;;5.63;58.04;98433.66;4988430;28;20414;-71
2022/03/26 07:20:14;;;;;;;46.22;28.27;;;6.70;71.50;;;5.73;57.56;98441.16;4990458;28;20425;-72
2022/03/26 07:22:41;;;;;;;37.70;25.33;;;6.70;71.00;;;5.82;57.20;98445.25;4990416;28;20421;-72
2022/03/26 07:25:09;;;;;;;44.45;27.38;;;6.80;70.40;;;5.90;57.11;98445.13;4989907;28;20426;-72
2022/03/26 07:27:37;;;;;;;38.53;25.57;;;6.90;70.10;;;5.99;56.85;98441.34;4990983;28;20406;-72
2022/03/26 07:30:05;;;;;;;41.70;25.83;;;7.00;69.80;;;6.09;56.47;98441.75;4990422;28;20829;-72
2022/03/26 07:32:31;;;;;;;40.03;25.73;;;7.10;69.60;;;6.19;56.35;98441.41;4990111;28;20500;-72
2022/03/26 07:34:57;;;;;;;49.25;29.27;;;7.20;69.30;;;6.26;56.03;98442.22;4990807;28;20423;-72
2022/03/26 07:37:24;;;;;;;42.47;26.15;;;7.20;68.90;;;6.34;55.90;98446.50;4991092;28;20477;-72
2022/03/26 07:39:50;;;;;;;39.15;25.10;;;7.30;68.60;;;6.44;55.73;98441.69;4991020;28;20409;-72
2022/03/26 07:42:17;;;;;;;37.03;24.10;;;7.40;68.40;;;6.51;55.43;98450.41;4990676;28;20398;-72
2022/03/26 07:44:44;;;;;;;35.03;23.27;;;7.50;68.10;;;6.59;55.32;98450.22;4990911;28;20952;-72
2022/03/26 07:47:10;;;;;;;37.33;24.73;;;7.60;67.90;;;6.68;54.93;98459.56;4991027;28;20410;-72
2022/03/26 07:49:36;;;;;;;41.35;25.67;;;7.60;67.60;;;6.75;54.96;98447.22;4989424;28;20429;-72
2022/03/26 07:52:03;;;;;;;37.70;23.98;;;7.70;67.20;;;6.82;54.50;98450.66;4990595;28;20930;-71
2022/03/26 07:54:29;;;;;;;40.55;24.77;;;7.80;66.80;;;6.90;54.31;98450.47;4990854;28;20501;-71
2022/03/26 07:56:55;;;;;;;37.65;24.60;;;7.90;67.40;;;6.98;54.15;98452.09;4993664;28;20418;-71
2022/03/26 07:59:21;;;;;;;37.67;24.20;;;7.90;66.20;;;7.05;53.56;98452.91;4994983;28;20462;-69
2022/03/26 08:01:48;;;;;;;39.93;24.87;;;8.00;65.80;;;7.13;53.17;98449.28;4993708;28;20446;-69
2022/03/26 08:04:14;;;;;;;39.00;24.52;;;8.00;65.00;;;7.20;52.91;98450.88;5005679;28;20795;-69
2022/03/26 08:06:40;;;;;;;41.15;23.73;;;8.20;64.80;;;7.28;52.82;98453.31;4994609;28;20402;-68
2022/03/26 08:09:07;;;;;;;35.20;22.77;;;8.20;64.40;;;7.37;52.41;98459.16;4994588;28;20406;-74
2022/03/26 08:11:33;;;;;;;40.33;26.00;;;8.30;63.90;;;7.45;52.39;98450.25;5009272;28;20784;-74
2022/03/26 08:13:59;;;;;;;44.15;27.60;;;8.40;63.90;;;7.54;52.23;98454.28;4994722;28;20402;-73
2022/03/26 08:16:25;;;;;;;46.17;28.27;;;8.50;63.60;;;7.61;51.49;98461.16;5005057;28;20413;-73
2022/03/26 08:18:52;;;;;;;47.67;29.10;;;8.50;62.70;;;7.69;51.13;98458.31;5000030;28;20437;-73
2022/03/26 08:21:18;;;;;;;38.92;25.92;;;8.60;62.90;;;7.82;51.05;98451.41;4997470;28;20432;-74
2022/03/26 08:23:44;;;;;;;41.42;26.40;;;8.70;62.10;;;7.93;50.97;98461.31;4994744;28;20767;-75
2022/03/26 08:26:23;;;;;;;52.42;31.38;;;8.80;61.90;;;8.02;50.41;98466.16;4994433;28;20888;-74
2022/03/26 08:28:50;;;;;;;39.13;25.47;;;8.90;61.10;;;8.14;50.22;98467.09;4994506;28;20473;-74
2022/03/26 08:31:17;;;;;;;40.00;26.13;;;9.00;61.00;;;8.23;49.83;98467.69;5008758;28;20443;-73
2022/03/26 08:33:43;;;;;;;55.80;33.23;;;9.10;60.60;;;8.32;49.56;98471.75;4993850;28;20413;-74
2022/03/26 08:36:11;;;;;;;44.70;28.48;;;9.20;60.00;;;8.44;49.25;98475.31;4994232;28;20738;-68
2022/03/26 08:38:37;;;;;;;40.50;26.48;;;9.30;59.90;;;8.55;49.22;98471.22;4994002;28;20484;-68
2022/03/26 08:41:03;;;;;;;38.45;25.23;;;9.40;59.70;;;8.67;49.11;98472.16;4993777;28;20402;-68
2022/03/26 08:43:29;;;;;;;42.15;27.80;;;9.50;59.60;;;8.77;48.56;98477.78;5009107;28;20414;-68
2022/03/26 08:45:55;;;;;;;40.97;27.50;;;9.60;59.00;;;8.88;48.60;98473.66;4998295;28;20402;-72
2022/03/26 08:48:22;;;;;;;41.42;27.33;;;9.70;58.80;;;8.99;48.48;98482.72;4996827;28;20920;-71
2022/03/26 08:50:48;;;;;;;42.80;26.95;;;9.80;58.60;;;9.08;48.36;98476.97;4993761;28;20450;-72
2022/03/26 08:53:16;;;;;;;41.57;27.40;;;9.90;58.50;;;9.15;47.75;98479.56;4993664;28;20512;-71
2022/03/26 08:55:42;;;;;;;44.65;29.17;;;10.00;57.80;;;9.23;47.77;98480.13;4993892;28;20417;-70
2022/03/26 08:58:08;;;;;;;42.00;26.98;;;10.10;57.90;;;9.35;47.67;98488.13;4994003;28;20411;-73
2022/03/26 09:00:35;;;;;;;46.42;28.52;;;10.20;58.00;;;9.47;48.01;98483.75;4992892;28;20490;-70
2022/03/26 09:03:02;;;;;;;42.55;26.85;;;10.30;58.30;;;9.66;47.64;98485.44;4993622;28;20402;-71
2022/03/26 09:05:29;;;;;;;42.03;26.88;;;10.50;58.00;;;9.88;47.30;98480.53;5008397;28;20421;-69
2022/03/26 09:07:55;;;;;;;44.93;28.93;;;10.70;57.60;;;10.06;46.16;98479.75;4993376;28;20461;-70
2022/03/26 09:10:23;;;;;;;48.70;29.38;;;10.90;56.30;;;10.25;45.89;98480.56;4993010;28;20441;-72
2022/03/26 09:12:49;;;;;;;38.03;25.63;;;11.00;55.80;;;10.44;45.66;98482.97;4993403;28;20417;-74
2022/03/26 09:15:15;;;;;;;45.25;28.08;;;11.20;55.70;;;10.62;45.50;98486.59;4993439;28;20414;-74
2022/03/26 09:17:41;;;;;;;42.22;26.58;;;11.40;55.30;;;10.75;45.09;98479.28;4993600;28;20493;-74
2022/03/26 09:20:09;;;;;;;41.38;25.48;;;11.50;54.70;;;10.86;44.58;98475.06;5008132;28;20418;-71
2022/03/26 09:22:35;;;;;;;47.08;28.60;;;11.60;54.10;;;10.93;44.13;98477.63;4993191;28;20415;-71
2022/03/26 09:25:04;;;;;;;48.30;28.98;;;11.70;53.50;;;11.04;43.94;98474.19;4993259;28;20888;-69
2022/03/26 09:27:31;;;;;;;52.03;29.93;;;11.80;53.40;;;11.08;42.78;98478.81;4993287;28;20508;-70
2022/03/26 09:29:57;;;;;;;43.60;26.90;;;11.90;52.30;;;11.20;43.15;98476.19;4993018;28;20422;-69
2022/03/26 09:32:23;;;;;;;43.00;26.70;;;12.00;52.40;;;11.32;43.01;98470.91;4992813;28;20461;-73
2022/03/26 09:34:50;;;;;;;42.90;26.45;;;12.10;52.50;;;11.46;43.29;98473.09;5015318;23;20425;-74
2022/03/26 09:37:16;;;;;;;45.20;27.13;;;12.20;52.60;;;11.59;43.40;98467.56;5012422;28;20401;-92
2022/03/26 09:39:42;;;;;;;45.33;26.63;;;12.30;52.60;;;11.70;42.69;98471.25;5012006;28;20901;-85
2022/03/26 09:42:09;;;;;;;44.78;26.38;;;12.40;52.00;;;11.80;42.79;98468.84;5012803;28;20419;-84
2022/03/26 09:44:37;;;;;;;54.35;29.60;;;12.60;51.90;;;11.86;42.22;98470.59;5010950;28;20519;-78
2022/03/26 09:47:05;;;;;;;43.97;26.77;;;12.60;51.20;;;11.98;42.23;98471.38;5012805;28;20541;-79
2022/03/26 09:49:31;;;;;;;42.58;26.45;;;12.70;51.30;;;12.08;42.04;98464.69;5012200;28;20412;-82
2022/03/26 09:51:57;;;;;;;42.95;25.48;;;12.80;51.10;;;12.20;42.09;98463.59;5012177;28;20413;-81
2022/03/26 09:54:24;;;;;;;40.60;25.08;;;12.90;51.00;;;12.32;41.71;98453.78;5012980;28;20413;-81
2022/03/26 09:56:50;;;;;;;49.67;28.00;;;13.10;50.90;;;12.44;41.42;98467.00;5016565;28;20494;-78
2022/03/26 09:59:20;;;;;;;44.58;26.27;;;13.20;50.50;;;12.58;41.49;98460.34;5003639;28;20412;-79
2022/03/26 10:01:47;;;;;;;51.58;29.30;;;13.30;50.20;;;12.74;40.88;98462.25;5011958;28;20496;-79
2022/03/26 10:04:15;;;;;;;52.65;28.83;;;13.40;49.70;;;12.96;40.31;98461.56;5012205;28;20413;-81
2022/03/26 10:06:48;;;;;;;47.13;25.90;;;13.60;49.30;;;13.29;39.73;98463.47;5013255;28;20478;-83
2022/03/26 10:09:26;;;;;;;45.70;26.70;;;13.90;48.80;;;13.91;38.67;98456.94;5012502;28;20451;-76
2022/03/26 10:11:59;;;;;;;57.95;31.40;;;14.50;47.80;;;14.73;35.59;98459.53;5007726;28;20770;-76
2022/03/26 10:14:35;;;;;;;49.95;26.77;;;15.50;44.00;;;15.79;34.41;98451.59;5004583;28;20509;-73